Terminal Aerodrome Forecast
Issued by NWS

Home | Current Version | Previous Version | Text Only | Print | Product List | Glossary On
Versions: 1 2 3 4 5 6 7 8 9 10 11 12 13 14 15 16
869
FTUS43 KDLH 240534
TAFHYR
TAF
KHYR 240534Z 2406/2506 19009KT P6SM OVC090 WS020/23035KT
     FM241100 19007KT P6SM BKN080 WS020/24040KT
     FM241600 20007KT P6SM VCSH BKN025
     FM242100 28010G18KT P6SM VCSH SCT018 BKN025
     FM250100 29008G14KT P6SM SCT022 BKN035=

USA.gov is the U.S. government's official web portal to all federal, state and local government web resources and services.